Time;durP1;ratioP1;P1;durP2;ratioP2;P2;SDS_P1;SDS_P2;PMS_P1;PMS_P2;Temp;Humidity;BMP_temperature;BMP_pressure;BME280_temperature;BME280_humidity;BME280_pressure;Samples;Min_cycle;Max_cycle;Signal;HPM_P1;HPM_P2
2023/10/14 00:01:14;;;;;;;9.38;4.57;;;;;;;16.57;100.00;99438.41;6252948;28;20084;-78
2023/10/14 00:04:17;;;;;;;18.08;5.82;;;;;;;16.61;100.00;99434.47;6253137;28;20049;-79
2023/10/14 00:07:19;;;;;;;15.07;5.22;;;;;;;16.64;100.00;99437.66;6253132;28;20053;-79
2023/10/14 00:10:22;;;;;;;18.63;4.82;;;;;;;16.66;100.00;99453.41;6252581;28;20346;-78
2023/10/14 00:13:30;;;;;;;9.90;4.55;;;;;;;16.59;100.00;99468.28;6253102;28;20450;-78
2023/10/14 00:16:35;;;;;;;12.25;5.40;;;;;;;16.47;100.00;99494.19;6252792;28;20049;-77
2023/10/14 00:19:37;;;;;;;12.02;4.00;;;;;;;16.04;100.00;99506.31;6252772;28;20506;-77
2023/10/14 00:22:39;;;;;;;7.97;2.80;;;;;;;15.71;100.00;99484.72;6252473;28;20049;-79
2023/10/14 00:25:43;;;;;;;7.30;2.67;;;;;;;15.43;100.00;99498.81;6252865;28;20045;-80
2023/10/14 00:28:45;;;;;;;3.33;1.65;;;;;;;15.10;100.00;99497.50;6252563;28;20350;-78
2023/10/14 00:31:49;;;;;;;12.55;1.85;;;;;;;14.93;100.00;99480.53;6252129;28;20046;-80
2023/10/14 00:34:50;;;;;;;8.65;1.90;;;;;;;14.87;100.00;99475.81;6252486;28;20148;-80
2023/10/14 00:37:53;;;;;;;4.05;1.60;;;;;;;14.87;100.00;99466.06;6252376;28;20461;-79
2023/10/14 00:40:59;;;;;;;2.60;1.27;;;;;;;14.85;100.00;99481.25;6251087;28;20132;-79
2023/10/14 00:44:00;;;;;;;7.50;1.20;;;;;;;14.83;100.00;99461.19;6252020;28;20048;-78
2023/10/14 00:47:07;;;;;;;7.10;1.30;;;;;;;14.83;100.00;99464.66;6252313;28;20430;-79
2023/10/14 00:50:22;;;;;;;9.05;1.35;;;;;;;14.83;100.00;99447.97;6251742;28;20056;-79
2023/10/14 00:53:27;;;;;;;6.22;1.45;;;;;;;14.80;100.00;99449.06;6252116;28;20045;-80
2023/10/14 00:56:31;;;;;;;2.88;1.40;;;;;;;14.80;100.00;99474.69;6251835;28;20060;-79
2023/10/14 00:59:33;;;;;;;5.05;1.60;;;;;;;14.81;100.00;99485.16;6251845;28;20061;-81
2023/10/14 01:02:37;;;;;;;5.03;1.77;;;;;;;14.82;100.00;99534.41;6251605;28;20195;-80
2023/10/14 01:05:39;;;;;;;2.75;1.20;;;;;;;14.56;100.00;99505.03;6251926;28;20056;-79
2023/10/14 01:08:43;;;;;;;1.42;1.02;;;;;;;14.48;100.00;99510.16;6251604;28;20049;-79
2023/10/14 01:11:45;;;;;;;7.65;1.20;;;;;;;14.06;100.00;99534.09;6251614;28;20053;-80
2023/10/14 01:14:52;;;;;;;3.92;0.82;;;;;;;13.90;100.00;99539.88;6251394;28;20346;-80
2023/10/14 01:17:53;;;;;;;1.73;0.73;;;;;;;13.58;100.00;99540.00;6251446;28;20446;-79
2023/10/14 01:20:57;;;;;;;4.57;0.68;;;;;;;13.52;100.00;99537.88;6251068;28;20504;-80
2023/10/14 01:24:00;;;;;;;1.10;0.60;;;;;;;13.46;100.00;99533.13;6251418;28;20049;-80
2023/10/14 01:27:05;;;;;;;6.55;0.75;;;;;;;13.53;100.00;99546.63;6251319;28;20049;-79
2023/10/14 01:30:10;;;;;;;4.18;0.60;;;;;;;13.53;100.00;99551.91;6250892;28;20056;-80
2023/10/14 01:33:15;;;;;;;2.47;0.70;;;;;;;13.26;100.00;99579.63;6251157;28;20045;-79
2023/10/14 01:36:17;;;;;;;1.95;0.32;;;;;;;13.19;100.00;99621.50;6251183;28;20453;-79
2023/10/14 01:39:26;;;;;;;3.08;0.47;;;;;;;13.27;100.00;99613.00;6250903;28;20056;-79
2023/10/14 01:42:30;;;;;;;0.30;0.30;;;;;;;13.11;100.00;99618.66;6250650;28;20049;-79
2023/10/14 01:45:31;;;;;;;3.38;0.40;;;;;;;13.16;100.00;99629.66;6250974;28;20069;-78
2023/10/14 01:48:33;;;;;;;1.80;0.65;;;;;;;13.16;100.00;99642.03;6250686;28;20049;-79
2023/10/14 01:51:35;;;;;;;3.53;1.25;;;;;;;13.09;100.00;99633.78;6250401;28;20054;-81
2023/10/14 01:54:39;;;;;;;1.85;0.40;;;;;;;13.14;100.00;99628.97;6250560;28;20068;-79
2023/10/14 01:57:42;;;;;;;3.97;0.57;;;;;;;12.94;100.00;99625.31;6250779;28;20050;-80
2023/10/14 02:00:46;;;;;;;0.55;0.40;;;;;;;12.92;100.00;99652.78;6250356;28;20049;-79
2023/10/14 02:03:48;;;;;;;2.45;0.40;;;;;;;12.73;100.00;99650.78;6250577;28;20110;-78
2023/10/14 02:07:17;;;;;;;0.70;0.43;;;;;;;12.82;100.00;99660.59;6250696;28;20057;-79
2023/10/14 02:10:13;;;;;;;0.55;0.40;;;;;;;12.91;100.00;99651.94;6250093;28;20056;-79
2023/10/14 02:13:16;;;;;;;1.48;0.38;;;;;;;12.69;100.00;99657.25;6250488;28;20132;-79
2023/10/14 02:16:23;;;;;;;0.77;0.68;;;;;;;12.75;100.00;99637.47;6250990;28;20064;-80
2023/10/14 02:19:36;;;;;;;2.35;0.45;;;;;;;12.86;100.00;99662.03;6250299;28;20061;-80
2023/10/14 02:22:38;;;;;;;1.85;0.50;;;;;;;12.74;100.00;99636.63;6250348;28;20041;-80
2023/10/14 02:25:41;;;;;;;0.95;0.55;;;;;;;12.74;100.00;99668.25;6250410;28;20111;-79
2023/10/14 02:28:45;;;;;;;0.70;0.50;;;;;;;12.85;100.00;99677.94;6249547;28;20061;-80
2023/10/14 02:31:47;;;;;;;0.75;0.70;;;;;;;12.67;100.00;99664.41;6249907;28;20450;-80
2023/10/14 02:34:50;;;;;;;2.55;0.50;;;;;;;12.65;100.00;99669.81;6250352;28;20045;-79
2023/10/14 02:37:53;;;;;;;4.68;0.85;;;;;;;12.65;100.00;99695.34;6250170;28;20056;-79
2023/10/14 02:40:56;;;;;;;2.42;0.60;;;;;;;12.60;100.00;99711.53;6249889;28;20468;-79
2023/10/14 02:44:19;;;;;;;0.98;0.47;;;;;;;12.65;100.00;99727.81;6249993;28;20068;-79
2023/10/14 02:47:20;;;;;;;0.65;0.40;;;;;;;12.57;100.00;99724.94;6250312;28;20172;-78
2023/10/14 02:50:24;;;;;;;1.65;0.73;;;;;;;12.41;100.00;99732.38;6249678;28;20327;-80
2023/10/14 02:53:28;;;;;;;0.50;0.50;;;;;;;12.37;100.00;99752.00;6250166;28;20198;-79
2023/10/14 02:56:58;;;;;;;1.38;0.50;;;;;;;12.47;100.00;99776.69;6250086;28;20055;-79
2023/10/14 02:59:57;;;;;;;6.82;0.55;;;;;;;12.41;100.00;99792.97;6249376;28;20053;-79
2023/10/14 03:03:02;;;;;;;2.15;0.70;;;;;;;12.52;100.00;99797.41;6250104;28;20053;-79
2023/10/14 03:06:06;;;;;;;0.43;0.40;;;;;;;12.51;100.00;99795.75;6254001;28;20057;-79
2023/10/14 03:09:09;;;;;;;3.97;0.75;;;;;;;12.51;100.00;99809.75;6254569;28;20053;-79
2023/10/14 03:12:13;;;;;;;4.65;0.47;;;;;;;12.30;100.00;99795.56;6254053;28;20471;-79
2023/10/14 03:15:19;;;;;;;1.65;0.73;;;;;;;12.33;100.00;99824.31;6254421;28;20112;-81
2023/10/14 03:18:23;;;;;;;3.33;0.73;;;;;;;12.31;100.00;99832.34;6254355;28;20457;-80
2023/10/14 03:21:31;;;;;;;0.90;0.75;;;;;;;12.33;100.00;99838.34;6253785;28;20050;-79
2023/10/14 03:24:38;;;;;;;1.35;0.52;;;;;;;12.24;100.00;99861.91;6254250;28;20080;-78
2023/10/14 03:27:41;;;;;;;2.38;0.60;;;;;;;12.05;100.00;99865.06;6254079;28;20053;-78
2023/10/14 03:30:46;;;;;;;5.93;0.80;;;;;;;12.04;100.00;99885.28;6253640;28;20050;-79
2023/10/14 03:33:48;;;;;;;4.28;0.55;;;;;;;12.09;100.00;99879.69;6253914;28;20045;-80
2023/10/14 03:36:50;;;;;;;5.68;0.90;;;;;;;11.84;100.00;99888.50;6253941;28;20107;-79
2023/10/14 03:40:34;;;;;;;3.20;0.82;;;;;;;11.82;100.00;99895.66;6253396;28;20056;-81
2023/10/14 03:43:15;;;;;;;5.90;0.80;;;;;;;11.90;100.00;99901.25;6253391;28;20053;-80
2023/10/14 03:46:23;;;;;;;4.97;0.75;;;;;;;11.89;100.00;99912.72;6253535;28;20057;-79
2023/10/14 03:49:25;;;;;;;1.95;0.80;;;;;;;11.98;100.00;99922.59;6253595;28;20053;-78
2023/10/14 03:52:27;;;;;;;2.10;0.90;;;;;;;11.79;100.00;99925.66;6253197;28;20519;-80
2023/10/14 03:55:29;;;;;;;4.40;0.60;;;;;;;11.88;100.00;99935.56;6253379;28;20397;-80
2023/10/14 03:58:32;;;;;;;4.00;0.68;;;;;;;11.84;100.00;99928.84;6253181;28;20400;-79
2023/10/14 04:01:43;;;;;;;2.58;1.02;;;;;;;11.78;100.00;99933.69;6253352;28;20061;-79
2023/10/14 04:04:45;;;;;;;4.32;0.50;;;;;;;11.76;100.00;99940.84;6253058;28;20056;-79
2023/10/14 04:07:46;;;;;;;4.07;0.75;;;;;;;11.82;100.00;99945.69;6253010;28;20398;-79
2023/10/14 04:10:54;;;;;;;4.15;0.90;;;;;;;11.77;100.00;99948.63;6252633;28;20441;-78
2023/10/14 04:14:02;;;;;;;4.28;0.77;;;;;;;11.65;100.00;99960.03;6253511;28;20054;-79
2023/10/14 04:17:10;;;;;;;1.58;0.60;;;;;;;11.71;100.00;99964.00;6252761;28;20345;-78
2023/10/14 04:20:22;;;;;;;2.35;1.02;;;;;;;11.70;100.00;99981.59;6252712;28;20053;-78
2023/10/14 04:23:29;;;;;;;3.08;0.52;;;;;;;11.56;100.00;99982.56;6252659;28;20428;-79
2023/10/14 04:26:34;;;;;;;6.20;1.33;;;;;;;11.55;100.00;99980.88;6252929;28;20054;-79
2023/10/14 04:29:39;;;;;;;6.22;1.67;;;;;;;11.63;100.00;99990.88;6252351;28;20055;-79
2023/10/14 04:32:47;;;;;;;8.27;0.80;;;;;;;11.43;100.00;99998.34;6252578;28;20056;-75
2023/10/14 04:36:09;;;;;;;7.20;0.80;;;;;;;11.57;100.00;100012.34;6252494;28;20053;-78
2023/10/14 04:39:14;;;;;;;4.25;0.77;;;;;;;11.57;100.00;100005.28;6252433;28;20054;-77
2023/10/14 04:42:39;;;;;;;4.78;0.65;;;;;;;11.53;100.00;100016.13;6251953;28;20053;-77
2023/10/14 04:45:45;;;;;;;0.73;0.50;;;;;;;11.39;100.00;100017.91;6252401;28;20053;-76
2023/10/14 04:48:51;;;;;;;2.67;0.88;;;;;;;11.20;100.00;100028.03;6252040;28;20060;-76
2023/10/14 04:51:56;;;;;;;8.45;1.67;;;;;;;11.25;100.00;100032.97;6251831;28;20136;-76
2023/10/14 04:55:08;;;;;;;6.43;1.02;;;;;;;11.22;100.00;100038.44;6251889;28;20460;-76
2023/10/14 04:58:14;;;;;;;4.20;1.00;;;;;;;11.12;100.00;100043.47;6252013;28;20049;-75
2023/10/14 05:01:18;;;;;;;6.05;0.98;;;;;;;11.24;100.00;100055.81;6251481;28;20050;-76
2023/10/14 05:04:22;;;;;;;9.27;0.77;;;;;;;11.22;100.00;100068.22;6251779;28;20437;-77
2023/10/14 05:07:28;;;;;;;6.63;0.95;;;;;;;11.13;100.00;100077.56;6251524;28;20057;-76
2023/10/14 05:10:30;;;;;;;14.85;0.80;;;;;;;11.00;100.00;100089.00;6251497;28;20054;-76
2023/10/14 05:13:32;;;;;;;6.28;1.23;;;;;;;11.09;100.00;100086.59;6251518;28;20132;-76
2023/10/14 05:16:54;;;;;;;3.50;0.65;;;;;;;11.06;100.00;100094.69;6251577;28;20054;-76
2023/10/14 05:19:59;;;;;;;8.88;1.23;;;;;;;10.93;100.00;100105.16;6250959;28;20136;-76
2023/10/14 05:23:00;;;;;;;6.82;0.98;;;;;;;10.98;100.00;100117.16;6251205;28;20080;-77
2023/10/14 05:26:06;;;;;;;4.95;1.33;;;;;;;10.87;100.00;100118.69;6251259;28;20196;-76
2023/10/14 05:29:16;;;;;;;8.43;1.13;;;;;;;10.77;100.00;100127.28;6250950;28;20045;-76
2023/10/14 05:32:23;;;;;;;5.35;0.90;;;;;;;10.79;100.00;100142.00;6250779;28;20053;-77
2023/10/14 05:35:25;;;;;;;10.13;0.73;;;;;;;10.76;100.00;100141.34;6250963;28;20341;-76
2023/10/14 05:38:26;;;;;;;2.97;0.70;;;;;;;10.85;100.00;100144.22;6251483;28;20187;-77
2023/10/14 05:41:28;;;;;;;3.88;1.30;;;;;;;10.78;100.00;100150.00;6250407;28;20354;-76
2023/10/14 05:44:29;;;;;;;6.72;0.82;;;;;;;10.75;100.00;100156.28;6250927;28;20057;-76
2023/10/14 05:47:32;;;;;;;6.78;0.77;;;;;;;10.64;100.00;100154.34;6250673;28;20053;-75
2023/10/14 05:50:35;;;;;;;10.38;2.45;;;;;;;10.73;100.00;100162.59;6250539;28;20050;-76
2023/10/14 05:53:36;;;;;;;5.35;1.05;;;;;;;10.69;100.00;100172.44;6250694;28;20092;-76
2023/10/14 05:56:39;;;;;;;4.60;0.82;;;;;;;10.67;100.00;100166.41;6250907;28;20053;-76
2023/10/14 05:59:41;;;;;;;4.00;0.77;;;;;;;10.53;100.00;100176.97;6250421;28;20357;-76
2023/10/14 06:02:44;;;;;;;6.45;1.25;;;;;;;10.61;100.00;100187.84;6250509;28;20092;-76
2023/10/14 06:05:45;;;;;;;5.30;1.52;;;;;;;10.55;100.00;100188.22;6250499;28;20050;-76
2023/10/14 06:08:49;;;;;;;6.78;0.90;;;;;;;10.59;100.00;100205.50;6250751;28;20049;-77
2023/10/14 06:11:53;;;;;;;8.63;1.08;;;;;;;10.50;100.00;100211.31;6250172;28;20053;-76
2023/10/14 06:14:54;;;;;;;4.55;0.88;;;;;;;10.66;100.00;100218.13;6250723;28;20045;-76
2023/10/14 06:17:57;;;;;;;7.80;1.00;;;;;;;10.61;100.00;100225.47;6250440;28;20050;-77
2023/10/14 06:20:59;;;;;;;7.18;1.55;;;;;;;10.54;100.00;100228.59;6250320;28;20057;-77
2023/10/14 06:24:04;;;;;;;8.13;1.63;;;;;;;10.58;100.00;100238.81;6250166;28;20354;-75
2023/10/14 06:27:08;;;;;;;6.78;0.98;;;;;;;10.64;100.00;100240.22;6250306;28;20053;-77
2023/10/14 06:30:18;;;;;;;12.52;1.10;;;;;;;10.61;100.00;100257.00;6250193;28;20445;-76
2023/10/14 06:33:26;;;;;;;4.35;1.00;;;;;;;10.63;100.00;100260.41;6250220;28;20123;-75
2023/10/14 06:36:27;;;;;;;4.80;0.88;;;;;;;10.54;100.00;100271.47;6250382;28;20060;-76
2023/10/14 06:39:31;;;;;;;6.82;0.98;;;;;;;10.61;100.00;100271.91;6251645;28;20335;-75
2023/10/14 06:42:32;;;;;;;5.53;0.93;;;;;;;10.58;100.00;100278.22;6255038;28;20164;-76
2023/10/14 06:45:35;;;;;;;2.17;0.57;;;;;;;10.60;100.00;100289.47;6254898;28;20052;-76
2023/10/14 06:48:38;;;;;;;7.43;1.00;;;;;;;10.68;100.00;100293.44;6255040;28;20050;-76
2023/10/14 06:51:40;;;;;;;4.28;0.77;;;;;;;10.68;100.00;100310.03;6254471;28;20049;-75
2023/10/14 06:54:43;;;;;;;3.85;1.00;;;;;;;10.58;100.00;100315.00;6254937;28;20050;-76
2023/10/14 06:57:47;;;;;;;3.60;0.63;;;;;;;10.65;100.00;100320.72;6254653;28;20059;-75
2023/10/14 07:00:49;;;;;;;5.25;0.80;;;;;;;10.74;100.00;100328.06;6254389;28;20049;-74
2023/10/14 07:03:52;;;;;;;7.88;1.02;;;;;;;10.77;100.00;100335.75;6254482;28;20053;-76
2023/10/14 07:06:58;;;;;;;11.85;1.00;;;;;;;10.73;100.00;100344.78;6254910;28;20055;-76
2023/10/14 07:10:00;;;;;;;9.60;1.73;;;;;;;10.76;100.00;100346.34;6254167;28;20054;-76
2023/10/14 07:13:02;;;;;;;4.45;1.08;;;;;;;10.71;100.00;100348.41;6254569;28;20049;-76
2023/10/14 07:16:06;;;;;;;5.88;0.93;;;;;;;10.80;100.00;100353.13;6254347;28;20049;-76
2023/10/14 07:19:11;;;;;;;5.10;0.80;;;;;;;10.90;100.00;100363.00;6254020;28;20045;-75
2023/10/14 07:22:15;;;;;;;7.25;1.15;;;;;;;10.87;100.00;100368.44;6254015;28;20049;-76
2023/10/14 07:25:18;;;;;;;5.75;0.98;;;;;;;10.88;100.00;100380.63;6253962;28;20132;-76
2023/10/14 07:28:20;;;;;;;7.65;0.90;;;;;;;10.93;100.00;100389.09;6253912;28;20454;-75
2023/10/14 07:31:23;;;;;;;3.80;0.90;;;;;;;10.88;100.00;100391.16;6253428;28;20065;-75
2023/10/14 07:34:26;;;;;;;7.45;0.93;;;;;;;10.94;100.00;100400.44;6254008;28;20055;-75
2023/10/14 07:37:27;;;;;;;10.48;1.38;;;;;;;10.93;100.00;100410.13;6253824;28;20060;-76
2023/10/14 07:40:31;;;;;;;16.08;2.03;;;;;;;10.98;100.00;100416.88;6253547;28;20468;-74
2023/10/14 07:43:33;;;;;;;13.43;1.20;;;;;;;10.97;100.00;100421.31;6253607;28;20124;-73
2023/10/14 07:46:35;;;;;;;2.42;0.75;;;;;;;11.08;100.00;100434.66;6253768;28;20050;-75
2023/10/14 07:49:38;;;;;;;12.55;1.05;;;;;;;11.13;100.00;100437.00;6252847;28;20045;-75
2023/10/14 07:52:40;;;;;;;6.63;0.98;;;;;;;11.11;100.00;100439.72;6253487;28;20057;-75
2023/10/14 07:55:42;;;;;;;7.00;0.90;;;;;;;11.08;100.00;100446.94;6253429;28;20057;-76
2023/10/14 07:58:43;;;;;;;9.73;1.00;;;;;;;11.12;100.00;100456.34;6253129;28;20442;-75
2023/10/14 08:01:45;;;;;;;9.18;0.85;;;;;;;11.17;100.00;100459.53;6252822;28;20211;-74
2023/10/14 08:04:53;;;;;;;5.55;0.80;;;;;;;11.22;100.00;100469.78;6253076;28;20089;-75
2023/10/14 08:07:54;;;;;;;7.10;0.93;;;;;;;11.24;100.00;100473.19;6253096;28;20438;-75
2023/10/14 08:10:57;;;;;;;2.03;0.68;;;;;;;11.30;100.00;100481.53;6252632;28;20053;-75
2023/10/14 08:13:58;;;;;;;5.93;1.13;;;;;;;11.34;100.00;100483.03;6252971;28;20049;-74
2023/10/14 08:17:00;;;;;;;7.68;1.40;;;;;;;11.31;100.00;100487.63;6252828;28;20056;-75
2023/10/14 08:20:12;;;;;;;7.35;1.05;;;;;;;11.39;100.00;100494.13;6252652;28;20052;-74
2023/10/14 08:23:13;;;;;;;13.63;2.05;;;;;;;11.43;100.00;100500.06;6252753;28;20050;-76
2023/10/14 08:26:15;;;;;;;10.45;1.20;;;;;;;11.53;100.00;100511.69;6252703;28;20049;-75
2023/10/14 08:29:20;;;;;;;6.85;0.80;;;;;;;11.52;100.00;100511.81;6252430;28;20072;-75
2023/10/14 08:32:23;;;;;;;10.30;1.00;;;;;;;11.53;100.00;100514.34;6252223;28;20057;-75
2023/10/14 08:35:27;;;;;;;16.40;1.27;;;;;;;11.62;100.00;100524.28;6252451;28;20051;-75
2023/10/14 08:38:28;;;;;;;6.22;1.00;;;;;;;11.64;100.00;100532.97;6252343;28;20449;-75
2023/10/14 08:41:33;;;;;;;6.55;1.05;;;;;;;11.64;100.00;100540.84;6252157;28;20073;-74
2023/10/14 08:44:39;;;;;;;5.95;1.55;;;;;;;11.78;100.00;100541.81;6252502;28;20429;-75
2023/10/14 08:47:41;;;;;;;8.57;1.35;;;;;;;11.79;100.00;100543.50;6252375;28;20103;-75
2023/10/14 08:50:45;;;;;;;12.20;1.10;;;;;;;11.82;100.00;100538.91;6251737;28;20053;-75
2023/10/14 08:53:53;;;;;;;9.32;0.88;;;;;;;11.78;100.00;100552.34;6252228;28;20103;-75
2023/10/14 08:56:54;;;;;;;5.00;0.77;;;;;;;11.92;100.00;100547.09;6251917;28;20060;-75
2023/10/14 08:59:56;;;;;;;7.28;1.17;;;;;;;11.93;100.00;100556.69;6251549;28;20046;-74
2023/10/14 09:02:58;;;;;;;10.63;1.52;;;;;;;11.99;100.00;100558.06;6251044;28;20049;-75
2023/10/14 09:06:06;;;;;;;4.07;1.33;;;;;;;12.01;100.00;100562.31;6251788;28;20042;-74
2023/10/14 09:09:16;;;;;;;5.13;1.00;;;;;;;12.05;100.00;100555.91;6251508;28;20049;-75
2023/10/14 09:12:18;;;;;;;9.20;1.13;;;;;;;12.05;100.00;100566.47;6251509;28;20116;-74
2023/10/14 09:15:21;;;;;;;5.80;0.90;;;;;;;12.10;100.00;100569.66;6251497;28;20442;-74
2023/10/14 09:18:27;;;;;;;7.55;1.52;;;;;;;12.15;100.00;100574.63;6251601;28;20085;-75
2023/10/14 09:21:31;;;;;;;7.00;1.33;;;;;;;12.23;100.00;100568.88;6251063;28;20053;-75
2023/10/14 09:24:34;;;;;;;2.95;0.93;;;;;;;12.23;100.00;100572.38;6251223;28;20350;-75
2023/10/14 09:27:37;;;;;;;8.55;1.10;;;;;;;12.26;100.00;100577.41;6251109;28;20053;-75
2023/10/14 09:30:44;;;;;;;15.73;1.63;;;;;;;12.32;100.00;100570.94;6250794;28;20393;-75
2023/10/14 09:33:51;;;;;;;12.52;1.05;;;;;;;12.42;100.00;100583.44;6251263;28;20061;-74
2023/10/14 09:36:56;;;;;;;7.35;1.33;;;;;;;12.47;100.00;100590.19;6251285;28;20132;-76
2023/10/14 09:40:06;;;;;;;9.98;1.20;;;;;;;12.48;100.00;100586.59;6238988;28;20408;-74
2023/10/14 09:43:08;;;;;;;14.98;1.17;;;;;;;12.58;100.00;100595.63;6247908;28;20107;-75
2023/10/14 09:46:11;;;;;;;13.52;1.13;;;;;;;12.59;100.00;100598.16;6249317;28;20041;-75
2023/10/14 09:49:12;;;;;;;6.57;1.05;;;;;;;12.59;100.00;100598.16;6239070;28;20176;-75
2023/10/14 09:52:18;;;;;;;6.10;0.75;;;;;;;12.64;100.00;100605.78;6241517;28;20045;-74
2023/10/14 09:55:20;;;;;;;7.70;1.35;;;;;;;12.67;100.00;100608.19;6248969;28;20054;-75
2023/10/14 09:58:25;;;;;;;5.00;1.00;;;;;;;12.73;100.00;100604.34;6240748;28;20049;-76
2023/10/14 10:01:27;;;;;;;6.65;1.50;;;;;;;12.84;100.00;100612.41;6242091;28;20045;-75
2023/10/14 10:04:35;;;;;;;3.90;1.13;;;;;;;12.85;100.00;100616.72;6242413;28;20049;-75
2023/10/14 10:07:53;;;;;;;6.55;1.50;;;;;;;12.96;100.00;100630.06;6242192;28;20058;-75
2023/10/14 10:10:56;;;;;;;5.68;0.80;;;;;;;12.96;100.00;100627.44;6250388;28;20049;-75
2023/10/14 10:14:00;;;;;;;8.20;1.05;;;;;;;13.02;100.00;100634.94;6254511;28;20053;-76
2023/10/14 10:17:08;;;;;;;6.47;1.40;;;;;;;13.06;100.00;100638.22;6250483;28;20048;-75
2023/10/14 10:20:12;;;;;;;6.03;1.08;;;;;;;13.03;100.00;100644.53;6256665;28;20136;-74
2023/10/14 10:23:15;;;;;;;2.58;0.63;;;;;;;12.95;100.00;100647.69;6250125;28;20393;-76
2023/10/14 10:26:18;;;;;;;7.03;0.80;;;;;;;12.94;100.00;100658.31;6249857;28;20052;-76
2023/10/14 10:29:21;;;;;;;9.18;1.23;;;;;;;12.90;100.00;100649.78;6258571;28;20095;-77
2023/10/14 10:32:24;;;;;;;5.63;1.15;;;;;;;12.97;100.00;100652.00;6287199;22;20147;-75
2023/10/14 10:35:25;;;;;;;4.90;0.70;;;;;;;13.01;100.00;100670.19;6292011;28;20432;-75
2023/10/14 10:38:32;;;;;;;3.80;0.70;;;;;;;13.11;100.00;100660.72;6295841;28;20055;-76
2023/10/14 10:41:37;;;;;;;12.98;1.15;;;;;;;13.01;100.00;100656.16;6307857;28;20074;-76
2023/10/14 10:44:42;;;;;;;5.93;1.13;;;;;;;12.86;100.00;100663.28;6307986;28;20045;-76
2023/10/14 10:47:45;;;;;;;9.88;1.05;;;;;;;12.82;100.00;100667.03;6303711;28;20447;-76
2023/10/14 10:50:51;;;;;;;11.40;1.42;;;;;;;12.86;100.00;100665.91;6296401;28;20105;-75
2023/10/14 10:53:54;;;;;;;7.57;1.08;;;;;;;12.97;100.00;100665.22;6299612;28;20055;-75
2023/10/14 10:57:00;;;;;;;8.98;1.02;;;;;;;13.17;100.00;100681.44;6307974;28;20345;-77
2023/10/14 11:00:02;;;;;;;2.55;0.65;;;;;;;13.19;100.00;100670.78;6295934;28;20055;-75
2023/10/14 11:03:04;;;;;;;2.35;1.00;;;;;;;13.39;100.00;100680.88;6296382;28;20045;-76
2023/10/14 11:06:05;;;;;;;10.15;2.08;;;;;;;13.60;100.00;100688.34;6297093;28;20045;-76
2023/10/14 11:09:12;;;;;;;9.55;1.13;;;;;;;13.55;100.00;100682.53;6305813;28;20060;-75
2023/10/14 11:12:14;;;;;;;3.95;0.73;;;;;;;13.43;100.00;100689.47;6291912;28;20360;-75
2023/10/14 11:15:20;;;;;;;7.15;2.13;;;;;;;13.53;100.00;100685.25;6294881;28;20321;-75
2023/10/14 11:18:21;;;;;;;4.07;0.70;;;;;;;13.56;100.00;100684.22;6293488;28;20060;-76
2023/10/14 11:21:26;;;;;;;7.13;1.05;;;;;;;13.77;100.00;100681.94;6291258;28;20049;-75
2023/10/14 11:24:31;;;;;;;5.10;1.23;;;;;;;13.80;100.00;100679.91;6293870;28;20139;-77
2023/10/14 11:27:33;;;;;;;10.45;2.85;;;;;;;14.03;100.00;100680.97;6292955;28;20044;-77
2023/10/14 11:30:41;;;;;;;5.75;1.45;;;;;;;14.06;100.00;100683.44;6295170;28;20049;-78
2023/10/14 11:33:47;;;;;;;5.43;0.88;;;;;;;14.17;100.00;100690.59;6303399;28;20127;-77
2023/10/14 11:36:49;;;;;;;4.22;1.40;;;;;;;14.09;100.00;100677.94;6303573;28;20056;-76
2023/10/14 11:39:53;;;;;;;10.60;1.15;;;;;;;14.27;100.00;100680.25;6303394;28;20052;-78
2023/10/14 11:42:55;;;;;;;8.63;1.80;;;;;;;14.31;100.00;100679.09;6303345;28;20052;-78
2023/10/14 11:45:57;;;;;;;4.82;1.10;;;;;;;14.54;100.00;100686.28;6303265;28;20201;-78
2023/10/14 11:49:00;;;;;;;8.57;1.05;;;;;;;14.81;100.00;100687.91;6303272;28;20048;-77
2023/10/14 11:52:04;;;;;;;5.88;1.65;;;;;;;14.74;100.00;100671.63;6302895;28;20041;-77
2023/10/14 11:55:11;;;;;;;8.95;0.90;;;;;;;15.02;100.00;100678.41;6303114;28;20048;-76
2023/10/14 11:58:13;;;;;;;3.45;0.80;;;;;;;15.13;100.00;100677.63;6303007;28;20432;-77
2023/10/14 12:01:14;;;;;;;8.93;1.35;;;;;;;15.04;100.00;100659.78;6302852;28;20051;-77
2023/10/14 12:04:15;;;;;;;14.20;1.23;;;;;;;14.69;100.00;100679.88;6302821;28;20348;-78
2023/10/14 12:07:17;;;;;;;6.72;1.50;;;;;;;14.35;100.00;100672.63;6302945;28;20045;-79
2023/10/14 12:10:25;;;;;;;4.85;0.52;;;;;;;14.13;100.00;100691.78;6302341;28;20056;-76
2023/10/14 12:13:27;;;;;;;6.77;0.80;;;;;;;13.72;100.00;100692.81;6302860;28;20131;-78
2023/10/14 12:16:29;;;;;;;4.72;0.90;;;;;;;12.92;100.00;100699.78;6302578;28;20053;-77
2023/10/14 12:19:30;;;;;;;1.02;0.50;;;;;;;12.84;100.00;100696.78;6302630;28;20059;-78
2023/10/14 12:22:32;;;;;;;7.68;1.10;;;;;;;12.64;100.00;100693.63;6302169;28;20049;-76
2023/10/14 12:25:35;;;;;;;6.78;1.00;;;;;;;12.52;100.00;100688.28;6302265;28;20074;-76
2023/10/14 12:28:36;;;;;;;1.58;0.65;;;;;;;12.40;100.00;100697.81;6302383;28;20044;-77
2023/10/14 12:31:38;;;;;;;5.22;0.90;;;;;;;12.42;100.00;100699.38;6301678;28;20052;-77
2023/10/14 12:34:43;;;;;;;9.90;1.60;;;;;;;12.70;100.00;100703.78;6302289;28;20056;-78
2023/10/14 12:37:44;;;;;;;2.75;0.68;;;;;;;13.06;100.00;100725.28;6301241;28;20049;-77
2023/10/14 12:40:48;;;;;;;6.55;0.70;;;;;;;13.14;100.00;100747.59;6301817;28;20071;-76
2023/10/14 12:43:51;;;;;;;2.15;0.55;;;;;;;12.89;100.00;100765.91;6301865;28;20052;-76
2023/10/14 12:46:52;;;;;;;4.20;0.40;;;;;;;12.51;100.00;100742.78;6301913;28;20045;-76
2023/10/14 12:49:54;;;;;;;4.40;0.80;;;;;;;12.80;100.00;100740.13;6301435;28;20052;-76
2023/10/14 12:52:59;;;;;;;3.30;0.60;;;;;;;13.12;100.00;100744.19;6301745;28;20049;-76
2023/10/14 12:56:02;;;;;;;1.80;0.77;;;;;;;13.45;100.00;100753.59;6301279;28;20072;-75
2023/10/14 12:59:12;;;;;;;4.05;0.85;;;;;;;13.40;100.00;100776.78;6301572;28;20052;-76
2023/10/14 13:02:17;;;;;;;1.80;0.40;;;;;;;12.94;100.00;100798.13;6301160;28;20326;-76
2023/10/14 13:05:20;;;;;;;2.13;0.40;;;;;;;12.17;100.00;100804.56;6301349;28;20474;-76
2023/10/14 13:08:21;;;;;;;0.28;0.20;;;;;;;11.29;100.00;100777.13;6301314;28;20055;-77
2023/10/14 13:11:24;;;;;;;4.53;0.40;;;;;;;11.56;100.00;100748.41;6300897;28;20055;-75
2023/10/14 13:14:26;;;;;;;1.65;0.60;;;;;;;12.31;100.00;100751.91;6301115;28;20048;-75
2023/10/14 13:17:28;;;;;;;1.30;0.43;;;;;;;12.48;100.00;100765.84;6301205;28;20048;-76
2023/10/14 13:20:30;;;;;;;0.73;0.30;;;;;;;12.67;100.00;100761.13;6300548;28;20452;-75
2023/10/14 13:23:32;;;;;;;2.75;0.50;;;;;;;12.87;100.00;100752.84;6300892;28;20054;-76
2023/10/14 13:26:35;;;;;;;0.60;0.50;;;;;;;13.04;100.00;100749.16;6300736;28;20052;-77
2023/10/14 13:29:40;;;;;;;4.70;1.30;;;;;;;12.87;100.00;100770.47;6300574;28;20044;-76
2023/10/14 13:32:42;;;;;;;2.50;0.43;;;;;;;12.52;100.00;100770.84;6300515;28;20135;-76
2023/10/14 13:35:45;;;;;;;2.70;1.10;;;;;;;12.31;100.00;100775.63;6300648;28;20045;-78
2023/10/14 13:38:47;;;;;;;2.40;0.65;;;;;;;12.23;100.00;100769.13;6300798;28;20052;-76
2023/10/14 13:41:50;;;;;;;1.55;0.50;;;;;;;12.09;100.00;100780.47;6300215;28;20606;-77
2023/10/14 13:44:52;;;;;;;6.90;0.80;;;;;;;12.24;100.00;100768.19;6300826;28;20056;-76
2023/10/14 13:47:53;;;;;;;8.25;0.82;;;;;;;12.34;100.00;100772.78;6300095;28;20055;-77
2023/10/14 13:50:55;;;;;;;1.83;0.52;;;;;;;12.98;100.00;100781.16;6300115;28;20059;-76
2023/10/14 13:53:58;;;;;;;2.22;0.65;;;;;;;13.38;100.00;100781.31;6300522;28;20052;-76
2023/10/14 13:57:01;;;;;;;1.80;0.50;;;;;;;13.19;100.00;100779.81;6300258;28;20045;-76
2023/10/14 14:00:07;;;;;;;6.97;0.50;;;;;;;13.37;100.00;100780.47;6300034;28;20360;-77
2023/10/14 14:03:10;;;;;;;4.57;0.60;;;;;;;13.20;100.00;100772.75;6300128;28;20048;-76
2023/10/14 14:06:12;;;;;;;4.75;0.55;;;;;;;13.15;100.00;100778.31;6300136;28;20056;-77
2023/10/14 14:09:14;;;;;;;3.60;1.20;;;;;;;13.16;100.00;100790.56;6300156;28;20056;-74